createdAt,value
2023-01-04T00:01:38.749Z,16.83
2023-01-04T00:03:42.116Z,16.35
2023-01-04T00:05:46.135Z,16.27
2023-01-04T00:07:48.690Z,16.70
2023-01-04T00:09:51.246Z,15.90
2023-01-04T00:11:53.806Z,15.68
2023-01-04T00:13:58.614Z,14.63
2023-01-04T00:16:08.206Z,19.13
2023-01-04T00:18:11.100Z,13.43
2023-01-04T00:20:13.641Z,19.67
2023-01-04T00:22:17.549Z,17.38
2023-01-04T00:24:20.347Z,13.55
2023-01-04T00:26:24.937Z,18.98
2023-01-04T00:28:27.456Z,20.23
2023-01-04T00:30:30.018Z,14.95
2023-01-04T00:32:32.609Z,18.52
2023-01-04T00:34:35.171Z,20.50
2023-01-04T00:36:37.754Z,14.23
2023-01-04T00:38:42.590Z,15.45
2023-01-04T00:40:45.152Z,16.70
2023-01-04T00:42:49.987Z,16.80
2023-01-04T00:44:52.532Z,15.30
2023-01-04T00:46:55.187Z,17.00
2023-01-04T00:49:00.784Z,18.85
2023-01-04T00:51:03.589Z,18.23
2023-01-04T00:53:06.141Z,15.00
2023-01-04T00:55:11.134Z,16.27
2023-01-04T00:57:13.685Z,22.63
2023-01-04T00:59:18.310Z,28.63
2023-01-04T01:01:20.968Z,14.93
2023-01-04T01:03:23.738Z,13.48
2023-01-04T01:05:26.516Z,11.98
2023-01-04T01:07:29.043Z,16.55
2023-01-04T01:09:31.773Z,14.30
2023-01-04T01:11:36.629Z,14.35
2023-01-04T01:13:39.947Z,13.13
2023-01-04T01:15:42.546Z,14.73
2023-01-04T01:17:45.196Z,18.85
2023-01-04T01:19:47.771Z,19.50
2023-01-04T01:21:51.426Z,17.63
2023-01-04T01:23:55.160Z,16.90
2023-01-04T01:26:01.253Z,17.58
2023-01-04T01:28:05.537Z,26.95
2023-01-04T01:30:09.278Z,23.35
2023-01-04T01:32:11.890Z,23.52
2023-01-04T01:34:14.727Z,26.63
2023-01-04T01:36:20.039Z,33.90
2023-01-04T01:38:22.586Z,33.97
2023-01-04T01:40:25.136Z,19.90
2023-01-04T01:42:27.688Z,13.23
2023-01-04T01:45:03.313Z,13.35
2023-01-04T01:47:06.315Z,13.05
2023-01-04T01:49:16.329Z,13.02
2023-01-04T01:51:20.184Z,16.88
2023-01-04T01:53:26.254Z,13.05
2023-01-04T01:55:31.939Z,14.80
2023-01-04T01:57:37.291Z,12.73
2023-01-04T01:59:43.394Z,14.10
2023-01-04T02:01:47.803Z,17.75
2023-01-04T02:03:50.529Z,15.23
2023-01-04T02:05:56.109Z,12.07
2023-01-04T02:07:58.796Z,10.27
2023-01-04T02:10:01.712Z,13.68
2023-01-04T02:12:04.606Z,11.93
2023-01-04T02:14:26.687Z,11.00
2023-01-04T02:18:49.885Z,12.82
2023-01-04T02:20:58.762Z,12.38
2023-01-04T02:23:39.480Z,23.35
2023-01-04T02:26:08.402Z,18.83
2023-01-04T02:28:22.201Z,15.52
2023-01-04T02:30:40.644Z,11.32
2023-01-04T02:32:57.831Z,13.20
2023-01-04T02:35:11.158Z,14.98
2023-01-04T02:37:20.726Z,14.30
2023-01-04T02:39:35.379Z,14.48
2023-01-04T02:41:44.802Z,14.32
2023-01-04T02:44:12.313Z,15.50
2023-01-04T02:46:18.982Z,13.93
2023-01-04T02:48:40.723Z,13.73
2023-01-04T02:50:52.979Z,12.25
2023-01-04T02:52:55.647Z,12.05
2023-01-04T02:54:58.916Z,12.98
2023-01-04T02:57:12.490Z,12.55
2023-01-04T02:59:37.674Z,11.65
2023-01-04T03:02:06.988Z,12.70
2023-01-04T03:04:43.153Z,14.88
2023-01-04T03:06:54.765Z,14.20
2023-01-04T03:09:03.196Z,14.30
2023-01-04T03:11:31.679Z,14.25
2023-01-04T03:13:40.040Z,11.85
2023-01-04T03:15:46.820Z,16.15
2023-01-04T03:17:53.028Z,14.75
2023-01-04T03:19:59.262Z,13.20
2023-01-04T03:22:02.596Z,13.05
2023-01-04T03:24:40.445Z,12.60
2023-01-04T03:27:03.776Z,12.77
2023-01-04T03:29:43.117Z,12.02
2023-01-04T03:32:08.331Z,11.98
2023-01-04T03:34:31.842Z,14.20
2023-01-04T03:36:55.781Z,13.68
2023-01-04T03:39:21.534Z,11.77
2023-01-04T03:41:48.659Z,13.93
2023-01-04T03:44:15.315Z,11.93
2023-01-04T03:46:43.738Z,9.98
2023-01-04T03:48:51.762Z,13.63
2023-01-04T03:50:59.777Z,13.07
2023-01-04T03:53:04.091Z,11.10
2023-01-04T03:55:09.072Z,13.30
2023-01-04T03:57:13.952Z,12.23
2023-01-04T03:59:16.604Z,15.43
2023-01-04T04:01:21.228Z,12.57
2023-01-04T04:03:23.901Z,11.48
2023-01-04T04:05:43.818Z,11.35
2023-01-04T04:08:03.789Z,11.13
2023-01-04T04:10:08.694Z,11.20
2023-01-04T04:12:11.260Z,12.73
2023-01-04T04:14:13.837Z,11.70
2023-01-04T04:16:17.045Z,12.68
2023-01-04T04:18:19.651Z,10.52
2023-01-04T04:20:22.197Z,11.00
2023-01-04T04:22:24.862Z,13.13
2023-01-04T04:24:28.068Z,12.63
2023-01-04T04:26:32.089Z,12.25
2023-01-04T04:28:34.877Z,12.55
2023-01-04T04:30:37.552Z,11.27
2023-01-04T04:32:40.125Z,10.68
2023-01-04T04:34:42.693Z,17.10
2023-01-04T04:36:45.315Z,10.25
2023-01-04T04:38:47.846Z,9.27
2023-01-04T04:41:08.458Z,13.40
2023-01-04T04:43:12.329Z,9.90
2023-01-04T04:45:14.878Z,9.52
2023-01-04T04:47:17.609Z,10.00
2023-01-04T04:49:20.208Z,8.93
2023-01-04T04:51:22.794Z,12.30
2023-01-04T04:53:25.322Z,10.88
2023-01-04T04:55:27.961Z,9.35
2023-01-04T04:57:30.529Z,10.65
2023-01-04T04:59:36.251Z,8.93
2023-01-04T05:01:39.030Z,10.18
2023-01-04T05:03:41.879Z,9.27
2023-01-04T05:05:44.560Z,11.20
2023-01-04T05:07:47.164Z,12.45
2023-01-04T05:09:49.710Z,11.45
2023-01-04T05:12:09.675Z,12.27
2023-01-04T05:14:12.262Z,14.20
2023-01-04T05:16:16.143Z,10.90
2023-01-04T05:18:20.519Z,10.57
2023-01-04T05:20:23.273Z,10.48
2023-01-04T05:22:25.882Z,11.20
2023-01-04T05:24:28.442Z,12.77
2023-01-04T05:26:31.040Z,9.27
2023-01-04T05:28:33.578Z,10.05
2023-01-04T05:30:50.530Z,8.00
2023-01-04T05:32:54.391Z,9.30
2023-01-04T05:34:56.937Z,8.77
2023-01-04T05:36:59.457Z,9.77
2023-01-04T05:39:02.043Z,8.82
2023-01-04T05:41:24.640Z,9.00
2023-01-04T05:43:27.177Z,9.18
2023-01-04T05:45:29.823Z,5.35
2023-01-04T05:47:32.491Z,10.10
2023-01-04T05:49:36.421Z,6.55
2023-01-04T05:51:38.944Z,6.30
2023-01-04T05:53:41.582Z,9.77
2023-01-04T05:55:44.294Z,5.70
2023-01-04T05:57:47.490Z,5.85
2023-01-04T05:59:50.284Z,5.90
2023-01-04T06:01:53.058Z,4.28
2023-01-04T06:03:55.786Z,7.10
2023-01-04T06:05:59.723Z,6.80
2023-01-04T06:08:02.298Z,4.82
2023-01-04T06:10:05.386Z,3.28
2023-01-04T06:12:08.555Z,5.07
2023-01-04T06:14:11.395Z,4.70
2023-01-04T06:16:14.025Z,7.53
2023-01-04T06:18:16.586Z,5.28
2023-01-04T06:20:19.391Z,5.25
2023-01-04T06:22:23.694Z,6.22
2023-01-04T06:24:26.260Z,4.72
2023-01-04T06:26:28.800Z,4.82
2023-01-04T06:28:34.245Z,7.70
2023-01-04T06:30:41.224Z,5.18
2023-01-04T06:32:43.864Z,5.25
2023-01-04T06:34:46.409Z,9.35
2023-01-04T06:36:48.959Z,5.45
2023-01-04T06:38:53.510Z,5.72
2023-01-04T06:40:56.038Z,4.40
2023-01-04T06:42:58.575Z,4.78
2023-01-04T06:45:01.117Z,4.28
2023-01-04T06:47:03.687Z,4.82
2023-01-04T06:49:06.222Z,5.70
2023-01-04T06:51:08.799Z,4.78
2023-01-04T06:53:11.400Z,5.05
2023-01-04T06:55:15.412Z,2.95
2023-01-04T06:57:18.018Z,3.35
2023-01-04T06:59:20.591Z,3.97
2023-01-04T07:01:23.208Z,3.35
2023-01-04T07:03:25.867Z,4.05
2023-01-04T07:05:28.392Z,3.47
2023-01-04T07:07:31.211Z,4.50
2023-01-04T07:09:33.789Z,3.30
2023-01-04T07:11:37.698Z,9.32
2023-01-04T07:13:40.263Z,6.65
2023-01-04T07:15:43.385Z,3.20
2023-01-04T07:17:48.487Z,5.43
2023-01-04T07:19:51.011Z,6.30
2023-01-04T07:21:53.855Z,4.15
2023-01-04T07:23:56.654Z,5.22
2023-01-04T07:26:02.409Z,6.70
2023-01-04T07:28:06.569Z,5.00
2023-01-04T07:30:10.407Z,7.00
2023-01-04T07:32:14.279Z,4.43
2023-01-04T07:34:18.819Z,4.32
2023-01-04T07:36:21.394Z,5.80
2023-01-04T07:38:23.946Z,6.60
2023-01-04T07:40:26.745Z,3.95
2023-01-04T07:42:29.301Z,6.47
2023-01-04T07:44:33.255Z,4.15
2023-01-04T07:46:36.720Z,6.75
2023-01-04T07:48:39.378Z,3.35
2023-01-04T07:50:41.910Z,4.72
2023-01-04T07:52:44.447Z,5.60
2023-01-04T07:54:46.983Z,6.65
2023-01-04T07:56:49.593Z,9.02
2023-01-04T07:58:56.888Z,6.93
2023-01-04T08:01:08.560Z,2.72
2023-01-04T08:03:11.412Z,3.10
2023-01-04T08:05:14.141Z,3.20
2023-01-04T08:07:16.688Z,3.38
2023-01-04T08:09:19.915Z,3.33
2023-01-04T08:11:24.180Z,3.70
2023-01-04T08:13:26.778Z,2.83
2023-01-04T08:15:29.368Z,1.92
2023-01-04T08:17:33.293Z,5.30
2023-01-04T08:19:35.837Z,6.35
2023-01-04T08:21:38.899Z,7.80
2023-01-04T08:23:41.418Z,2.90
2023-01-04T08:25:43.970Z,2.55
2023-01-04T08:27:46.528Z,5.25
2023-01-04T08:29:49.052Z,2.30
2023-01-04T08:31:51.687Z,3.70
2023-01-04T08:33:57.220Z,3.97
2023-01-04T08:36:08.182Z,5.57
2023-01-04T08:38:48.605Z,5.23
2023-01-04T08:41:01.628Z,3.92
2023-01-04T08:42:55.907Z,3.08
2023-01-04T08:45:02.294Z,2.17
2023-01-04T08:47:05.305Z,3.53
2023-01-04T08:49:09.364Z,5.78
2023-01-04T08:51:13.699Z,5.07
2023-01-04T08:53:16.324Z,4.57
2023-01-04T08:55:23.318Z,4.50
2023-01-04T08:57:26.303Z,4.22
2023-01-04T08:59:29.780Z,7.50
2023-01-04T09:01:33.070Z,4.03
2023-01-04T09:03:36.242Z,4.95
2023-01-04T09:05:40.456Z,5.30
2023-01-04T09:07:43.143Z,3.97
2023-01-04T09:09:45.722Z,5.13
2023-01-04T09:11:48.242Z,3.28
2023-01-04T09:13:56.028Z,3.38
2023-01-04T09:16:01.677Z,3.65
2023-01-04T09:18:31.856Z,3.30
2023-01-04T09:20:28.613Z,2.40
2023-01-04T09:22:33.439Z,2.25
2023-01-04T09:24:36.240Z,2.45
2023-01-04T09:26:38.802Z,2.47
2023-01-04T09:28:41.844Z,3.40
2023-01-04T09:30:44.361Z,1.48
2023-01-04T09:32:46.965Z,1.90
2023-01-04T09:34:49.565Z,3.40
2023-01-04T09:36:52.543Z,1.08
2023-01-04T09:38:56.606Z,1.63
2023-01-04T09:41:06.200Z,1.58
2023-01-04T09:43:21.768Z,1.92
2023-01-04T09:45:27.608Z,1.65
2023-01-04T09:47:37.990Z,2.50
2023-01-04T09:49:45.758Z,2.80
2023-01-04T09:51:58.171Z,3.38
2023-01-04T09:54:06.505Z,1.13
2023-01-04T09:56:17.805Z,1.45
2023-01-04T09:58:26.781Z,0.88
2023-01-04T10:00:32.169Z,1.38
2023-01-04T10:02:41.621Z,0.95
2023-01-04T10:04:47.145Z,1.95
2023-01-04T10:06:50.002Z,1.10
2023-01-04T10:08:52.745Z,0.93
2023-01-04T10:11:11.369Z,2.25
2023-01-04T10:13:34.558Z,2.00
2023-01-04T10:15:42.103Z,0.95
2023-01-04T10:19:59.715Z,2.63
2023-01-04T10:23:14.405Z,1.48
2023-01-04T10:25:24.188Z,2.90
2023-01-04T10:27:42.662Z,1.67
2023-01-04T10:29:59.208Z,3.72
2023-01-04T10:32:06.480Z,1.55
2023-01-04T10:34:22.717Z,2.25
2023-01-04T10:36:31.362Z,1.05
2023-01-04T10:38:39.451Z,2.88
2023-01-04T10:40:42.643Z,1.77
2023-01-04T10:42:54.415Z,3.72
2023-01-04T10:45:09.482Z,1.52
2023-01-04T10:47:18.517Z,1.33
2023-01-04T10:49:30.373Z,1.08
2023-01-04T10:53:44.514Z,3.22
2023-01-04T10:56:23.569Z,1.77
2023-01-04T10:58:23.373Z,4.97
2023-01-04T11:00:29.859Z,1.63
2023-01-04T11:02:39.772Z,3.20
2023-01-04T11:04:48.609Z,2.05
2023-01-04T11:06:56.729Z,2.88
2023-01-04T11:09:03.425Z,2.42
2023-01-04T11:11:10.739Z,1.83
2023-01-04T11:13:13.553Z,6.65
2023-01-04T11:15:17.455Z,1.60
2023-01-04T11:17:22.373Z,0.75
2023-01-04T11:19:25.005Z,1.95
2023-01-04T11:21:32.466Z,1.65
2023-01-04T11:23:35.022Z,1.48
2023-01-04T11:25:42.855Z,1.67
2023-01-04T11:27:51.254Z,2.10
2023-01-04T11:29:58.949Z,2.05
2023-01-04T11:32:07.499Z,4.38
2023-01-04T11:34:10.136Z,3.22
2023-01-04T11:36:33.943Z,1.92
2023-01-04T11:38:36.539Z,3.25
2023-01-04T11:40:39.335Z,1.52
2023-01-04T11:42:41.978Z,3.80
2023-01-04T11:44:49.569Z,4.80
2023-01-04T11:47:10.761Z,1.10
2023-01-04T11:49:20.183Z,2.50
2023-01-04T11:51:37.502Z,3.22
2023-01-04T11:53:40.056Z,1.40
2023-01-04T11:55:42.667Z,0.95
2023-01-04T11:57:45.286Z,3.83
2023-01-04T12:00:08.776Z,2.22
2023-01-04T12:02:50.539Z,1.13
2023-01-04T12:04:43.757Z,1.27
2023-01-04T12:06:52.892Z,1.50
2023-01-04T12:08:55.579Z,2.55
2023-01-04T12:10:59.296Z,1.48
2023-01-04T12:13:03.201Z,1.38
2023-01-04T12:15:15.234Z,3.70
2023-01-04T12:17:24.188Z,1.55
2023-01-04T12:19:28.100Z,1.52
2023-01-04T12:21:35.013Z,2.55
2023-01-04T12:23:37.769Z,3.38
2023-01-04T12:25:43.822Z,4.55
2023-01-04T12:27:48.581Z,1.80
2023-01-04T12:29:57.982Z,1.17
2023-01-04T12:32:34.346Z,1.67
2023-01-04T12:34:43.143Z,1.73
2023-01-04T12:37:01.385Z,2.90
2023-01-04T12:39:22.830Z,3.33
2023-01-04T12:42:00.517Z,2.03
2023-01-04T12:44:04.415Z,2.72
2023-01-04T12:46:59.076Z,2.10
2023-01-04T12:49:36.447Z,3.63
2023-01-04T12:51:51.992Z,2.63
2023-01-04T12:54:05.462Z,6.15
2023-01-04T12:56:07.990Z,2.92
2023-01-04T12:59:15.415Z,1.50
2023-01-04T13:01:24.527Z,2.42
2023-01-04T13:03:48.010Z,1.95
2023-01-04T13:05:58.165Z,1.65
2023-01-04T13:08:03.550Z,1.95
2023-01-04T13:10:21.828Z,3.10
2023-01-04T13:12:44.009Z,3.75
2023-01-04T13:14:50.559Z,3.17
2023-01-04T13:17:07.669Z,3.17
2023-01-04T13:19:16.133Z,3.10
2023-01-04T13:21:26.701Z,1.92
2023-01-04T13:23:31.670Z,4.35
2023-01-04T13:25:36.085Z,3.92
2023-01-04T13:27:38.727Z,2.40
2023-01-04T13:29:42.271Z,3.72
2023-01-04T13:32:02.059Z,4.25
2023-01-04T13:34:04.614Z,2.13
2023-01-04T13:36:12.379Z,9.38
2023-01-04T13:38:17.259Z,4.55
2023-01-04T13:40:32.829Z,2.75
2023-01-04T13:42:38.313Z,2.90
2023-01-04T13:45:19.967Z,2.42
2023-01-04T13:47:23.209Z,3.45
2023-01-04T13:49:25.993Z,3.85
2023-01-04T13:51:36.912Z,5.00
2023-01-04T13:53:40.292Z,3.92
2023-01-04T13:55:44.215Z,1.30
2023-01-04T13:57:54.406Z,2.10
2023-01-04T13:59:56.957Z,2.30
2023-01-04T14:01:59.676Z,3.38
2023-01-04T14:04:03.799Z,2.65
2023-01-04T14:06:16.883Z,3.50
2023-01-04T14:08:27.340Z,2.33
2023-01-04T14:10:29.974Z,2.72
2023-01-04T14:12:33.897Z,3.67
2023-01-04T14:14:47.247Z,5.32
2023-01-04T14:16:51.895Z,1.75
2023-01-04T14:18:54.451Z,3.08
2023-01-04T14:20:57.053Z,2.28
2023-01-04T14:23:00.591Z,1.98
2023-01-04T14:25:43.536Z,1.60
2023-01-04T14:27:46.114Z,2.60
2023-01-04T14:29:48.663Z,4.07
2023-01-04T14:31:51.412Z,1.00
2023-01-04T14:33:54.791Z,2.80
2023-01-04T14:36:10.997Z,1.73
2023-01-04T14:38:17.622Z,1.13
2023-01-04T14:40:26.823Z,5.40
2023-01-04T14:42:32.245Z,2.90
2023-01-04T14:44:36.220Z,3.38
2023-01-04T14:46:39.249Z,1.35
2023-01-04T14:48:41.814Z,1.20
2023-01-04T14:50:44.388Z,1.90
2023-01-04T14:52:51.514Z,4.95
2023-01-04T14:54:54.051Z,1.48
2023-01-04T14:56:58.642Z,2.67
2023-01-04T14:59:02.554Z,1.73
2023-01-04T15:01:05.105Z,3.28
2023-01-04T15:03:07.996Z,2.55
2023-01-04T15:05:11.128Z,1.63
2023-01-04T15:07:33.719Z,2.83
2023-01-04T15:09:36.970Z,2.13
2023-01-04T15:11:39.643Z,2.13
2023-01-04T15:13:44.305Z,2.22
2023-01-04T15:15:48.242Z,1.05
2023-01-04T15:17:50.834Z,3.05
2023-01-04T15:19:53.513Z,1.40
2023-01-04T15:21:56.086Z,2.65
2023-01-04T15:23:58.614Z,1.05
2023-01-04T15:26:01.774Z,1.65
2023-01-04T15:28:04.689Z,0.80
2023-01-04T15:30:08.455Z,2.08
2023-01-04T15:32:12.415Z,1.13
2023-01-04T15:34:15.104Z,2.03
2023-01-04T15:36:23.779Z,1.70
2023-01-04T15:38:26.752Z,4.57
2023-01-04T15:40:29.363Z,1.13
2023-01-04T15:42:49.750Z,2.28
2023-01-04T15:44:52.315Z,1.83
2023-01-04T15:46:55.361Z,2.47
2023-01-04T15:48:59.314Z,1.67
2023-01-04T15:51:07.567Z,1.30
2023-01-04T15:53:11.274Z,1.50
2023-01-04T15:55:14.205Z,3.35
2023-01-04T15:57:16.805Z,2.33
2023-01-04T15:59:19.667Z,1.15
2023-01-04T16:01:22.931Z,3.08
2023-01-04T16:03:25.696Z,1.35
2023-01-04T16:05:29.554Z,1.10
2023-01-04T16:07:36.183Z,1.85
2023-01-04T16:09:39.184Z,5.90
2023-01-04T16:12:01.931Z,1.38
2023-01-04T16:14:04.486Z,1.85
2023-01-04T16:16:08.088Z,3.50
2023-01-04T16:18:10.774Z,1.20
2023-01-04T16:20:15.581Z,3.67
2023-01-04T16:22:19.553Z,3.55
2023-01-04T16:25:00.366Z,1.77
2023-01-04T16:26:44.780Z,2.20
2023-01-04T16:28:51.535Z,2.92
2023-01-04T16:30:55.923Z,1.75
2023-01-04T16:32:58.445Z,2.17
2023-01-04T16:35:00.977Z,2.42
2023-01-04T16:37:03.839Z,1.52
2023-01-04T16:39:08.373Z,2.00
2023-01-04T16:41:14.255Z,2.65
2023-01-04T16:43:17.259Z,2.85
2023-01-04T16:45:20.183Z,1.35
2023-01-04T16:47:23.051Z,1.30
2023-01-04T16:49:25.872Z,1.73
2023-01-04T16:51:29.879Z,3.03
2023-01-04T16:53:32.404Z,1.58
2023-01-04T16:55:36.357Z,1.92
2023-01-04T16:57:38.973Z,4.05
2023-01-04T16:59:41.542Z,6.78
2023-01-04T17:01:51.110Z,1.85
2023-01-04T17:03:59.191Z,1.35
2023-01-04T17:06:01.826Z,1.88
2023-01-04T17:08:04.445Z,1.60
2023-01-04T17:10:08.192Z,0.60
2023-01-04T17:12:45.661Z,1.40
2023-01-04T17:14:34.599Z,1.90
2023-01-04T17:16:37.182Z,1.25
2023-01-04T17:18:40.550Z,1.30
2023-01-04T17:20:43.181Z,1.38
2023-01-04T17:22:45.765Z,1.58
2023-01-04T17:24:48.342Z,1.88
2023-01-04T17:26:50.882Z,1.17
2023-01-04T17:28:56.194Z,1.33
2023-01-04T17:30:58.937Z,1.13
2023-01-04T17:33:01.494Z,4.63
2023-01-04T17:35:04.278Z,1.77
2023-01-04T17:37:06.850Z,2.47
2023-01-04T17:39:09.550Z,1.55
2023-01-04T17:41:13.893Z,2.45
2023-01-04T17:43:16.456Z,0.98
2023-01-04T17:45:20.425Z,1.40
2023-01-04T17:47:22.967Z,1.33
2023-01-04T17:49:31.264Z,4.57
2023-01-04T17:51:34.754Z,1.38
2023-01-04T17:53:37.465Z,3.22
2023-01-04T17:55:40.052Z,1.45
2023-01-04T17:59:50.220Z,1.73
2023-01-04T18:01:54.264Z,2.35
2023-01-04T18:03:58.816Z,2.90
2023-01-04T18:06:24.325Z,2.67
2023-01-04T18:08:23.898Z,3.00
2023-01-04T18:10:40.876Z,1.85
2023-01-04T18:12:50.279Z,0.93
2023-01-04T18:14:52.847Z,5.45
2023-01-04T18:16:57.727Z,5.75
2023-01-04T18:19:01.483Z,1.70
2023-01-04T18:21:28.009Z,1.35
2023-01-04T18:23:31.615Z,1.33
2023-01-04T18:25:34.636Z,1.48
2023-01-04T18:27:37.189Z,0.82
2023-01-04T18:29:39.736Z,2.72
2023-01-04T18:31:42.342Z,1.58
2023-01-04T18:33:52.687Z,4.60
2023-01-04T18:35:55.199Z,3.15
2023-01-04T18:37:57.847Z,1.13
2023-01-04T18:40:00.431Z,1.13
2023-01-04T18:42:03.160Z,3.80
2023-01-04T18:44:31.600Z,2.67
2023-01-04T18:46:28.862Z,1.42
2023-01-04T18:48:31.416Z,1.50
2023-01-04T18:50:35.328Z,2.13
2023-01-04T18:52:37.926Z,1.67
2023-01-04T18:54:40.589Z,1.65
2023-01-04T18:56:43.122Z,1.70
2023-01-04T18:58:46.596Z,2.35
2023-01-04T19:00:49.212Z,1.20
2023-01-04T19:02:52.465Z,1.42
2023-01-04T19:04:55.072Z,1.20
2023-01-04T19:06:59.176Z,1.63
2023-01-04T19:09:06.486Z,1.52
2023-01-04T19:11:10.013Z,1.25
2023-01-04T19:13:12.556Z,0.82
2023-01-04T19:15:15.209Z,2.55
2023-01-04T19:17:21.468Z,1.17
2023-01-04T19:19:24.153Z,2.55
2023-01-04T19:21:26.737Z,2.95
2023-01-04T19:23:30.611Z,1.45
2023-01-04T19:25:33.217Z,1.38
2023-01-04T19:27:38.817Z,5.20
2023-01-04T19:29:41.358Z,2.95
2023-01-04T19:31:43.929Z,1.92
2023-01-04T19:33:46.631Z,2.05
2023-01-04T19:35:49.147Z,1.92
2023-01-04T19:37:51.791Z,1.70
2023-01-04T19:39:55.709Z,1.30
2023-01-04T19:41:58.262Z,3.65
2023-01-04T19:44:02.230Z,4.75
2023-01-04T19:46:10.027Z,0.93
2023-01-04T19:48:12.591Z,2.55
2023-01-04T19:50:15.194Z,1.48
2023-01-04T19:52:17.707Z,2.58
2023-01-04T19:54:25.041Z,1.48
2023-01-04T19:56:29.197Z,1.80
2023-01-04T19:58:32.328Z,1.15
2023-01-04T20:00:35.383Z,1.02
2023-01-04T20:02:38.102Z,1.67
2023-01-04T20:04:40.802Z,2.70
2023-01-04T20:06:43.364Z,1.20
2023-01-04T20:08:46.067Z,2.92
2023-01-04T20:10:54.303Z,0.82
2023-01-04T20:12:58.253Z,1.48
2023-01-04T20:15:00.768Z,1.58
2023-01-04T20:17:03.393Z,1.75
2023-01-04T20:19:05.944Z,1.85
2023-01-04T20:21:10.470Z,0.93
2023-01-04T20:23:14.465Z,0.80
2023-01-04T20:25:17.078Z,1.92
2023-01-04T20:27:19.666Z,1.55
2023-01-04T20:29:23.624Z,1.30
2023-01-04T20:31:26.248Z,1.70
2023-01-04T20:33:29.198Z,1.17
2023-01-04T20:35:32.242Z,2.05
2023-01-04T20:37:34.760Z,1.40
2023-01-04T20:39:37.423Z,1.42
2023-01-04T20:42:00.203Z,1.40
2023-01-04T20:44:02.534Z,1.27
2023-01-04T20:46:11.738Z,1.27
2023-01-04T20:48:15.356Z,1.35
2023-01-04T20:50:18.027Z,1.30
2023-01-04T20:52:20.524Z,1.70
2023-01-04T20:54:23.072Z,4.15
2023-01-04T20:56:27.281Z,2.85
2023-01-04T20:58:29.809Z,3.15
2023-01-04T21:00:32.756Z,0.75
2023-01-04T21:02:38.789Z,1.42
2023-01-04T21:04:45.922Z,2.88
2023-01-04T21:06:48.485Z,1.20
2023-01-04T21:08:52.475Z,2.33
2023-01-04T21:10:55.122Z,3.25
2023-01-04T21:12:57.686Z,2.35
2023-01-04T21:15:00.368Z,0.77
2023-01-04T21:17:02.907Z,1.90
2023-01-04T21:19:07.154Z,1.08
2023-01-04T21:21:13.583Z,2.00
2023-01-04T21:23:16.849Z,0.93
2023-01-04T21:25:19.412Z,0.73
2023-01-04T21:27:22.085Z,2.08
2023-01-04T21:29:26.014Z,2.20
2023-01-04T21:31:28.617Z,1.05
2023-01-04T21:33:31.275Z,1.15
2023-01-04T21:35:35.473Z,0.90
2023-01-04T21:37:38.000Z,3.33
2023-01-04T21:39:40.553Z,1.60
2023-01-04T21:41:47.808Z,1.42
2023-01-04T21:43:51.344Z,2.80
2023-01-04T21:45:53.889Z,2.95
2023-01-04T21:47:56.445Z,2.03
2023-01-04T21:49:59.008Z,1.70
2023-01-04T21:52:03.041Z,1.00
2023-01-04T21:54:05.659Z,1.55
2023-01-04T21:56:10.568Z,0.77
2023-01-04T21:58:13.204Z,0.85
2023-01-04T22:00:15.861Z,1.48
2023-01-04T22:02:20.017Z,1.13
2023-01-04T22:04:22.689Z,2.28
2023-01-04T22:06:25.785Z,0.98
2023-01-04T22:08:30.151Z,1.15
2023-01-04T22:10:32.677Z,0.68
2023-01-04T22:12:35.226Z,0.77
2023-01-04T22:14:37.749Z,0.73
2023-01-04T22:16:40.311Z,0.68
2023-01-04T22:18:46.546Z,0.93
2023-01-04T22:20:49.106Z,0.43
2023-01-04T22:22:51.665Z,1.25
2023-01-04T22:24:55.540Z,1.90
2023-01-04T22:26:58.157Z,0.77
2023-01-04T22:29:00.813Z,1.60
2023-01-04T22:31:05.113Z,0.98
2023-01-04T22:33:07.619Z,1.75
2023-01-04T22:35:10.809Z,0.88
2023-01-04T22:37:13.369Z,1.67
2023-01-04T22:39:15.920Z,1.00
2023-01-04T22:41:21.368Z,1.83
2023-01-04T22:43:24.081Z,1.40
2023-01-04T22:45:26.625Z,1.27
2023-01-04T22:47:29.223Z,1.75
2023-01-04T22:49:32.212Z,1.83
2023-01-04T22:51:34.782Z,1.95
2023-01-04T22:53:37.707Z,1.25
2023-01-04T22:56:17.058Z,1.60
2023-01-04T22:58:05.036Z,2.38
2023-01-04T23:00:08.884Z,2.35
2023-01-04T23:02:11.407Z,1.95
2023-01-04T23:04:17.147Z,1.90
2023-01-04T23:06:20.090Z,1.25
2023-01-04T23:08:22.610Z,2.38
2023-01-04T23:10:25.487Z,2.65
2023-01-04T23:12:28.090Z,3.03
2023-01-04T23:14:31.962Z,6.93
2023-01-04T23:16:34.615Z,2.25
2023-01-04T23:18:38.248Z,3.15
2023-01-04T23:20:40.800Z,4.10
2023-01-04T23:22:43.356Z,2.75
2023-01-04T23:24:45.908Z,3.38
2023-01-04T23:26:48.509Z,1.90
2023-01-04T23:28:51.701Z,2.55
2023-01-04T23:30:55.581Z,1.00
2023-01-04T23:32:58.279Z,4.50
2023-01-04T23:35:00.864Z,0.98
2023-01-04T23:37:03.396Z,0.75
2023-01-04T23:39:08.584Z,2.72
2023-01-04T23:41:12.153Z,3.55
2023-01-04T23:43:14.695Z,0.65
2023-01-04T23:45:17.264Z,1.17
2023-01-04T23:47:21.191Z,3.67
2023-01-04T23:49:24.850Z,1.10
2023-01-04T23:51:27.420Z,1.65
2023-01-04T23:53:29.946Z,1.10
2023-01-04T23:55:32.485Z,2.65
2023-01-04T23:57:35.099Z,2.08
2023-01-04T23:59:37.874Z,1.25
